sensor_id;sensor_type;location;lat;lon;timestamp;P1;durP1;ratioP1;P2;durP2;ratioP2
75935;SDS011;64614;32.062;34.834;2023-09-19T00:00:37;7.18;;;3.53;;
75935;SDS011;64614;32.062;34.834;2023-09-19T00:03:05;7.63;;;3.70;;
75935;SDS011;64614;32.062;34.834;2023-09-19T00:05:34;6.07;;;3.30;;
75935;SDS011;64614;32.062;34.834;2023-09-19T00:08:01;7.30;;;3.72;;
75935;SDS011;64614;32.062;34.834;2023-09-19T00:10:31;5.90;;;3.65;;
75935;SDS011;64614;32.062;34.834;2023-09-19T00:13:00;8.10;;;3.95;;
75935;SDS011;64614;32.062;34.834;2023-09-19T00:15:29;7.97;;;3.83;;
75935;SDS011;64614;32.062;34.834;2023-09-19T00:17:55;6.68;;;3.60;;
75935;SDS011;64614;32.062;34.834;2023-09-19T00:20:21;7.63;;;3.72;;
75935;SDS011;64614;32.062;34.834;2023-09-19T00:22:50;8.85;;;3.97;;
75935;SDS011;64614;32.062;34.834;2023-09-19T00:25:19;7.28;;;3.80;;
75935;SDS011;64614;32.062;34.834;2023-09-19T00:27:46;6.63;;;3.65;;
75935;SDS011;64614;32.062;34.834;2023-09-19T00:30:16;5.75;;;3.20;;
75935;SDS011;64614;32.062;34.834;2023-09-19T00:32:48;7.47;;;3.55;;
75935;SDS011;64614;32.062;34.834;2023-09-19T00:35:20;6.07;;;3.38;;
75935;SDS011;64614;32.062;34.834;2023-09-19T00:37:46;7.65;;;3.75;;
75935;SDS011;64614;32.062;34.834;2023-09-19T00:40:12;8.48;;;4.00;;
75935;SDS011;64614;32.062;34.834;2023-09-19T00:42:44;6.32;;;3.65;;
75935;SDS011;64614;32.062;34.834;2023-09-19T00:45:11;6.38;;;3.65;;
75935;SDS011;64614;32.062;34.834;2023-09-19T00:47:59;7.18;;;3.75;;
75935;SDS011;64614;32.062;34.834;2023-09-19T00:50:28;6.97;;;4.03;;
75935;SDS011;64614;32.062;34.834;2023-09-19T00:52:57;6.97;;;4.20;;
75935;SDS011;64614;32.062;34.834;2023-09-19T00:55:24;8.30;;;4.13;;
75935;SDS011;64614;32.062;34.834;2023-09-19T00:57:50;7.00;;;3.78;;
75935;SDS011;64614;32.062;34.834;2023-09-19T01:00:17;7.35;;;4.05;;
75935;SDS011;64614;32.062;34.834;2023-09-19T01:02:45;7.30;;;4.22;;
75935;SDS011;64614;32.062;34.834;2023-09-19T01:05:11;7.18;;;4.00;;
75935;SDS011;64614;32.062;34.834;2023-09-19T01:07:38;7.03;;;3.97;;
75935;SDS011;64614;32.062;34.834;2023-09-19T01:10:06;7.10;;;4.00;;
75935;SDS011;64614;32.062;34.834;2023-09-19T01:24:04;7.38;;;4.32;;
75935;SDS011;64614;32.062;34.834;2023-09-19T01:26:56;7.22;;;4.43;;
75935;SDS011;64614;32.062;34.834;2023-09-19T01:30:08;9.55;;;5.00;;
75935;SDS011;64614;32.062;34.834;2023-09-19T01:32:42;9.90;;;4.85;;
75935;SDS011;64614;32.062;34.834;2023-09-19T01:35:11;7.63;;;4.03;;
75935;SDS011;64614;32.062;34.834;2023-09-19T01:37:38;7.72;;;4.13;;
75935;SDS011;64614;32.062;34.834;2023-09-19T01:40:07;8.30;;;4.43;;
75935;SDS011;64614;32.062;34.834;2023-09-19T01:47:52;10.30;;;5.00;;
75935;SDS011;64614;32.062;34.834;2023-09-19T01:53:10;9.60;;;5.13;;
75935;SDS011;64614;32.062;34.834;2023-09-19T01:55:55;9.35;;;5.20;;
75935;SDS011;64614;32.062;34.834;2023-09-19T02:01:00;9.32;;;4.90;;
75935;SDS011;64614;32.062;34.834;2023-09-19T02:03:27;9.02;;;5.20;;
75935;SDS011;64614;32.062;34.834;2023-09-19T02:05:54;8.93;;;4.70;;
75935;SDS011;64614;32.062;34.834;2023-09-19T02:08:20;8.27;;;4.57;;
75935;SDS011;64614;32.062;34.834;2023-09-19T02:10:50;11.85;;;4.30;;
75935;SDS011;64614;32.062;34.834;2023-09-19T02:13:20;8.57;;;4.63;;
75935;SDS011;64614;32.062;34.834;2023-09-19T02:15:49;8.23;;;4.47;;
75935;SDS011;64614;32.062;34.834;2023-09-19T02:18:14;7.78;;;4.68;;
75935;SDS011;64614;32.062;34.834;2023-09-19T02:20:41;8.13;;;4.20;;
75935;SDS011;64614;32.062;34.834;2023-09-19T02:23:07;9.15;;;4.30;;
75935;SDS011;64614;32.062;34.834;2023-09-19T02:25:33;7.90;;;4.38;;
75935;SDS011;64614;32.062;34.834;2023-09-19T02:28:00;8.60;;;4.43;;
75935;SDS011;64614;32.062;34.834;2023-09-19T02:30:29;8.98;;;4.97;;
75935;SDS011;64614;32.062;34.834;2023-09-19T02:32:55;9.95;;;4.57;;
75935;SDS011;64614;32.062;34.834;2023-09-19T02:35:21;8.75;;;4.43;;
75935;SDS011;64614;32.062;34.834;2023-09-19T02:37:47;9.27;;;4.30;;
75935;SDS011;64614;32.062;34.834;2023-09-19T02:40:14;10.10;;;4.40;;
75935;SDS011;64614;32.062;34.834;2023-09-19T02:42:54;10.20;;;4.88;;
75935;SDS011;64614;32.062;34.834;2023-09-19T02:45:21;8.35;;;4.60;;
75935;SDS011;64614;32.062;34.834;2023-09-19T02:47:47;10.75;;;4.60;;
75935;SDS011;64614;32.062;34.834;2023-09-19T02:50:14;9.82;;;4.40;;
75935;SDS011;64614;32.062;34.834;2023-09-19T02:52:43;7.90;;;4.40;;
75935;SDS011;64614;32.062;34.834;2023-09-19T02:55:11;8.25;;;4.20;;
75935;SDS011;64614;32.062;34.834;2023-09-19T02:57:39;6.80;;;3.97;;
75935;SDS011;64614;32.062;34.834;2023-09-19T03:00:08;8.95;;;4.07;;
75935;SDS011;64614;32.062;34.834;2023-09-19T03:02:37;8.15;;;4.20;;
75935;SDS011;64614;32.062;34.834;2023-09-19T03:05:05;9.73;;;4.50;;
75935;SDS011;64614;32.062;34.834;2023-09-19T03:07:32;9.45;;;4.45;;
75935;SDS011;64614;32.062;34.834;2023-09-19T03:09:58;9.50;;;4.57;;
75935;SDS011;64614;32.062;34.834;2023-09-19T03:12:23;9.35;;;4.70;;
75935;SDS011;64614;32.062;34.834;2023-09-19T03:14:49;8.82;;;4.97;;
75935;SDS011;64614;32.062;34.834;2023-09-19T03:17:15;10.98;;;5.43;;
75935;SDS011;64614;32.062;34.834;2023-09-19T03:19:41;10.75;;;5.60;;
75935;SDS011;64614;32.062;34.834;2023-09-19T03:22:08;10.35;;;5.75;;
75935;SDS011;64614;32.062;34.834;2023-09-19T03:24:33;11.18;;;5.88;;
75935;SDS011;64614;32.062;34.834;2023-09-19T03:27:01;14.10;;;6.30;;
75935;SDS011;64614;32.062;34.834;2023-09-19T03:29:28;10.57;;;5.70;;
75935;SDS011;64614;32.062;34.834;2023-09-19T03:31:53;12.43;;;6.18;;
75935;SDS011;64614;32.062;34.834;2023-09-19T03:34:19;16.40;;;6.63;;
75935;SDS011;64614;32.062;34.834;2023-09-19T03:36:46;11.80;;;6.55;;
75935;SDS011;64614;32.062;34.834;2023-09-19T03:39:11;15.73;;;7.40;;
75935;SDS011;64614;32.062;34.834;2023-09-19T03:41:37;15.05;;;7.20;;
75935;SDS011;64614;32.062;34.834;2023-09-19T03:44:04;14.73;;;6.55;;
75935;SDS011;64614;32.062;34.834;2023-09-19T03:46:29;13.65;;;6.63;;
75935;SDS011;64614;32.062;34.834;2023-09-19T03:48:55;13.13;;;6.45;;
75935;SDS011;64614;32.062;34.834;2023-09-19T03:51:21;12.82;;;6.28;;
75935;SDS011;64614;32.062;34.834;2023-09-19T03:53:46;12.57;;;5.90;;
75935;SDS011;64614;32.062;34.834;2023-09-19T03:56:14;12.93;;;6.53;;
75935;SDS011;64614;32.062;34.834;2023-09-19T03:58:40;15.70;;;6.55;;
75935;SDS011;64614;32.062;34.834;2023-09-19T04:01:05;13.93;;;6.78;;
75935;SDS011;64614;32.062;34.834;2023-09-19T04:06:10;13.05;;;7.32;;
75935;SDS011;64614;32.062;34.834;2023-09-19T04:08:40;14.93;;;6.88;;
75935;SDS011;64614;32.062;34.834;2023-09-19T04:11:05;13.43;;;6.38;;
75935;SDS011;64614;32.062;34.834;2023-09-19T04:13:31;11.40;;;6.25;;
75935;SDS011;64614;32.062;34.834;2023-09-19T04:15:57;14.20;;;7.22;;
75935;SDS011;64614;32.062;34.834;2023-09-19T04:18:23;13.45;;;6.95;;
75935;SDS011;64614;32.062;34.834;2023-09-19T04:20:51;12.88;;;6.93;;
75935;SDS011;64614;32.062;34.834;2023-09-19T04:23:17;13.40;;;6.75;;
75935;SDS011;64614;32.062;34.834;2023-09-19T04:25:46;13.38;;;6.45;;
75935;SDS011;64614;32.062;34.834;2023-09-19T04:28:12;12.38;;;6.60;;
75935;SDS011;64614;32.062;34.834;2023-09-19T04:30:38;11.38;;;6.10;;
75935;SDS011;64614;32.062;34.834;2023-09-19T04:33:07;13.48;;;6.65;;
75935;SDS011;64614;32.062;34.834;2023-09-19T04:35:33;14.70;;;6.95;;
75935;SDS011;64614;32.062;34.834;2023-09-19T04:37:59;12.85;;;6.78;;
75935;SDS011;64614;32.062;34.834;2023-09-19T04:40:25;14.30;;;6.97;;
75935;SDS011;64614;32.062;34.834;2023-09-19T04:42:55;14.63;;;7.72;;
75935;SDS011;64614;32.062;34.834;2023-09-19T04:45:27;13.93;;;7.20;;
75935;SDS011;64614;32.062;34.834;2023-09-19T04:47:53;16.42;;;7.20;;
75935;SDS011;64614;32.062;34.834;2023-09-19T04:50:19;19.58;;;7.05;;
75935;SDS011;64614;32.062;34.834;2023-09-19T04:52:49;14.63;;;7.28;;
75935;SDS011;64614;32.062;34.834;2023-09-19T04:55:16;13.07;;;6.80;;
75935;SDS011;64614;32.062;34.834;2023-09-19T04:57:47;13.52;;;6.78;;
75935;SDS011;64614;32.062;34.834;2023-09-19T05:00:18;13.75;;;6.90;;
75935;SDS011;64614;32.062;34.834;2023-09-19T05:02:52;19.65;;;7.35;;
75935;SDS011;64614;32.062;34.834;2023-09-19T05:05:21;17.95;;;7.15;;
75935;SDS011;64614;32.062;34.834;2023-09-19T05:07:47;18.30;;;6.57;;
75935;SDS011;64614;32.062;34.834;2023-09-19T05:10:13;14.23;;;6.43;;
75935;SDS011;64614;32.062;34.834;2023-09-19T05:12:39;17.15;;;6.38;;
75935;SDS011;64614;32.062;34.834;2023-09-19T05:15:06;14.80;;;6.82;;
75935;SDS011;64614;32.062;34.834;2023-09-19T05:17:33;13.82;;;6.10;;
75935;SDS011;64614;32.062;34.834;2023-09-19T05:20:00;14.52;;;6.68;;
75935;SDS011;64614;32.062;34.834;2023-09-19T05:22:50;15.50;;;6.78;;
75935;SDS011;64614;32.062;34.834;2023-09-19T05:25:23;15.02;;;6.88;;
75935;SDS011;64614;32.062;34.834;2023-09-19T05:27:52;11.65;;;6.22;;
75935;SDS011;64614;32.062;34.834;2023-09-19T05:30:18;13.20;;;6.55;;
75935;SDS011;64614;32.062;34.834;2023-09-19T05:32:45;10.13;;;5.55;;
75935;SDS011;64614;32.062;34.834;2023-09-19T05:35:10;11.98;;;6.03;;
75935;SDS011;64614;32.062;34.834;2023-09-19T05:37:38;12.85;;;5.70;;
75935;SDS011;64614;32.062;34.834;2023-09-19T05:40:04;10.65;;;5.25;;
75935;SDS011;64614;32.062;34.834;2023-09-19T05:42:37;15.10;;;6.57;;
75935;SDS011;64614;32.062;34.834;2023-09-19T05:45:04;14.18;;;5.93;;
75935;SDS011;64614;32.062;34.834;2023-09-19T05:47:31;11.75;;;5.90;;
75935;SDS011;64614;32.062;34.834;2023-09-19T05:49:57;12.35;;;6.05;;
75935;SDS011;64614;32.062;34.834;2023-09-19T05:52:24;11.25;;;5.60;;
75935;SDS011;64614;32.062;34.834;2023-09-19T05:54:50;13.05;;;5.80;;
75935;SDS011;64614;32.062;34.834;2023-09-19T05:57:16;13.88;;;6.03;;
75935;SDS011;64614;32.062;34.834;2023-09-19T05:59:41;14.50;;;5.50;;
75935;SDS011;64614;32.062;34.834;2023-09-19T06:02:08;14.25;;;5.72;;
75935;SDS011;64614;32.062;34.834;2023-09-19T06:04:35;13.13;;;5.68;;
75935;SDS011;64614;32.062;34.834;2023-09-19T06:07:00;10.77;;;6.15;;
75935;SDS011;64614;32.062;34.834;2023-09-19T06:11:57;12.05;;;6.18;;
75935;SDS011;64614;32.062;34.834;2023-09-19T06:14:25;11.10;;;5.78;;
75935;SDS011;64614;32.062;34.834;2023-09-19T06:16:51;11.13;;;5.88;;
75935;SDS011;64614;32.062;34.834;2023-09-19T06:19:19;12.73;;;5.90;;
75935;SDS011;64614;32.062;34.834;2023-09-19T06:21:48;13.15;;;5.72;;
75935;SDS011;64614;32.062;34.834;2023-09-19T06:24:14;9.90;;;5.38;;
75935;SDS011;64614;32.062;34.834;2023-09-19T06:26:40;11.57;;;5.55;;
75935;SDS011;64614;32.062;34.834;2023-09-19T06:29:05;9.02;;;5.20;;
75935;SDS011;64614;32.062;34.834;2023-09-19T06:31:33;11.45;;;5.45;;
75935;SDS011;64614;32.062;34.834;2023-09-19T06:33:58;11.75;;;5.95;;
75935;SDS011;64614;32.062;34.834;2023-09-19T06:36:27;14.43;;;6.00;;
75935;SDS011;64614;32.062;34.834;2023-09-19T06:38:52;13.20;;;5.40;;
75935;SDS011;64614;32.062;34.834;2023-09-19T06:41:18;10.88;;;5.60;;
75935;SDS011;64614;32.062;34.834;2023-09-19T06:43:44;10.05;;;5.75;;
75935;SDS011;64614;32.062;34.834;2023-09-19T06:46:10;11.48;;;5.28;;
75935;SDS011;64614;32.062;34.834;2023-09-19T06:48:37;10.43;;;5.82;;
75935;SDS011;64614;32.062;34.834;2023-09-19T06:51:03;10.65;;;5.93;;
75935;SDS011;64614;32.062;34.834;2023-09-19T06:53:33;10.88;;;5.47;;
75935;SDS011;64614;32.062;34.834;2023-09-19T06:56:00;10.32;;;5.72;;
75935;SDS011;64614;32.062;34.834;2023-09-19T06:58:26;9.13;;;5.07;;
75935;SDS011;64614;32.062;34.834;2023-09-19T07:00:52;12.82;;;5.82;;
75935;SDS011;64614;32.062;34.834;2023-09-19T07:03:18;11.95;;;6.32;;
75935;SDS011;64614;32.062;34.834;2023-09-19T07:05:47;10.65;;;5.90;;
75935;SDS011;64614;32.062;34.834;2023-09-19T07:08:13;9.82;;;5.70;;
75935;SDS011;64614;32.062;34.834;2023-09-19T07:10:40;11.77;;;6.03;;
75935;SDS011;64614;32.062;34.834;2023-09-19T07:13:13;10.38;;;5.78;;
75935;SDS011;64614;32.062;34.834;2023-09-19T07:15:41;11.35;;;5.70;;
75935;SDS011;64614;32.062;34.834;2023-09-19T07:18:11;10.07;;;5.90;;
75935;SDS011;64614;32.062;34.834;2023-09-19T07:20:40;10.30;;;5.53;;
75935;SDS011;64614;32.062;34.834;2023-09-19T07:23:14;9.57;;;5.60;;
75935;SDS011;64614;32.062;34.834;2023-09-19T07:25:43;8.90;;;5.95;;
75935;SDS011;64614;32.062;34.834;2023-09-19T07:28:09;9.40;;;5.75;;
75935;SDS011;64614;32.062;34.834;2023-09-19T07:30:36;9.38;;;5.70;;
75935;SDS011;64614;32.062;34.834;2023-09-19T07:33:06;11.70;;;6.00;;
75935;SDS011;64614;32.062;34.834;2023-09-19T07:35:32;8.75;;;5.72;;
75935;SDS011;64614;32.062;34.834;2023-09-19T07:37:58;10.27;;;5.95;;
75935;SDS011;64614;32.062;34.834;2023-09-19T07:40:26;10.00;;;5.65;;
75935;SDS011;64614;32.062;34.834;2023-09-19T07:42:57;9.27;;;6.10;;
75935;SDS011;64614;32.062;34.834;2023-09-19T07:45:27;9.38;;;5.78;;
75935;SDS011;64614;32.062;34.834;2023-09-19T07:50:20;9.20;;;5.88;;
75935;SDS011;64614;32.062;34.834;2023-09-19T07:52:46;9.15;;;5.68;;
75935;SDS011;64614;32.062;34.834;2023-09-19T07:55:12;8.60;;;5.63;;
75935;SDS011;64614;32.062;34.834;2023-09-19T07:57:41;10.10;;;5.95;;
75935;SDS011;64614;32.062;34.834;2023-09-19T08:00:08;8.25;;;5.47;;
75935;SDS011;64614;32.062;34.834;2023-09-19T08:02:35;11.57;;;5.95;;
75935;SDS011;64614;32.062;34.834;2023-09-19T08:05:04;10.32;;;6.00;;
75935;SDS011;64614;32.062;34.834;2023-09-19T08:07:38;8.90;;;6.05;;
75935;SDS011;64614;32.062;34.834;2023-09-19T08:10:04;8.75;;;5.70;;
75935;SDS011;64614;32.062;34.834;2023-09-19T08:12:44;10.20;;;5.40;;
75935;SDS011;64614;32.062;34.834;2023-09-19T08:15:14;9.35;;;5.30;;
75935;SDS011;64614;32.062;34.834;2023-09-19T08:17:44;11.65;;;6.18;;
75935;SDS011;64614;32.062;34.834;2023-09-19T08:20:11;9.98;;;5.93;;
75935;SDS011;64614;32.062;34.834;2023-09-19T08:22:47;10.00;;;6.03;;
75935;SDS011;64614;32.062;34.834;2023-09-19T08:25:17;9.85;;;5.95;;
75935;SDS011;64614;32.062;34.834;2023-09-19T08:27:45;9.75;;;6.45;;
75935;SDS011;64614;32.062;34.834;2023-09-19T08:30:14;7.20;;;5.30;;
75935;SDS011;64614;32.062;34.834;2023-09-19T08:32:40;8.15;;;5.20;;
75935;SDS011;64614;32.062;34.834;2023-09-19T08:35:08;9.35;;;5.63;;
75935;SDS011;64614;32.062;34.834;2023-09-19T08:37:34;14.13;;;6.03;;
75935;SDS011;64614;32.062;34.834;2023-09-19T08:40:00;13.15;;;6.32;;
75935;SDS011;64614;32.062;34.834;2023-09-19T08:42:26;12.02;;;5.97;;
75935;SDS011;64614;32.062;34.834;2023-09-19T08:44:52;8.00;;;5.53;;
75935;SDS011;64614;32.062;34.834;2023-09-19T08:47:36;8.13;;;5.60;;
75935;SDS011;64614;32.062;34.834;2023-09-19T08:50:11;9.35;;;6.05;;
75935;SDS011;64614;32.062;34.834;2023-09-19T08:52:41;8.68;;;5.88;;
75935;SDS011;64614;32.062;34.834;2023-09-19T08:55:07;8.48;;;5.38;;
75935;SDS011;64614;32.062;34.834;2023-09-19T08:57:37;10.60;;;5.95;;
75935;SDS011;64614;32.062;34.834;2023-09-19T09:00:06;9.27;;;5.72;;
75935;SDS011;64614;32.062;34.834;2023-09-19T09:05:03;11.88;;;5.80;;
75935;SDS011;64614;32.062;34.834;2023-09-19T09:07:31;8.18;;;5.45;;
75935;SDS011;64614;32.062;34.834;2023-09-19T09:10:00;9.00;;;5.50;;
75935;SDS011;64614;32.062;34.834;2023-09-19T09:12:27;8.75;;;5.05;;
75935;SDS011;64614;32.062;34.834;2023-09-19T09:14:55;8.00;;;5.30;;
75935;SDS011;64614;32.062;34.834;2023-09-19T09:17:22;11.25;;;5.95;;
75935;SDS011;64614;32.062;34.834;2023-09-19T09:19:52;7.00;;;5.05;;
75935;SDS011;64614;32.062;34.834;2023-09-19T09:27:29;8.60;;;5.68;;
75935;SDS011;64614;32.062;34.834;2023-09-19T09:29:56;7.68;;;5.45;;
75935;SDS011;64614;32.062;34.834;2023-09-19T09:32:23;9.25;;;5.53;;
75935;SDS011;64614;32.062;34.834;2023-09-19T09:34:51;9.38;;;5.65;;
75935;SDS011;64614;32.062;34.834;2023-09-19T09:37:20;8.68;;;5.07;;
75935;SDS011;64614;32.062;34.834;2023-09-19T09:42:44;9.35;;;5.60;;
75935;SDS011;64614;32.062;34.834;2023-09-19T09:47:59;9.77;;;5.53;;
75935;SDS011;64614;32.062;34.834;2023-09-19T09:50:33;8.80;;;5.65;;
75935;SDS011;64614;32.062;34.834;2023-09-19T09:53:25;10.73;;;5.95;;
75935;SDS011;64614;32.062;34.834;2023-09-19T09:55:59;9.57;;;6.10;;
75935;SDS011;64614;32.062;34.834;2023-09-19T09:58:32;9.43;;;5.97;;
75935;SDS011;64614;32.062;34.834;2023-09-19T10:00:59;9.85;;;5.97;;
75935;SDS011;64614;32.062;34.834;2023-09-19T10:03:34;10.48;;;5.93;;
75935;SDS011;64614;32.062;34.834;2023-09-19T10:06:09;8.48;;;6.22;;
75935;SDS011;64614;32.062;34.834;2023-09-19T10:09:06;11.32;;;6.18;;
75935;SDS011;64614;32.062;34.834;2023-09-19T10:11:46;8.95;;;5.50;;
75935;SDS011;64614;32.062;34.834;2023-09-19T10:14:23;8.18;;;5.53;;
75935;SDS011;64614;32.062;34.834;2023-09-19T10:16:54;10.63;;;6.03;;
75935;SDS011;64614;32.062;34.834;2023-09-19T10:19:30;8.85;;;5.80;;
75935;SDS011;64614;32.062;34.834;2023-09-19T10:22:01;10.95;;;5.75;;
75935;SDS011;64614;32.062;34.834;2023-09-19T10:24:30;9.35;;;5.97;;
75935;SDS011;64614;32.062;34.834;2023-09-19T10:26:59;8.93;;;5.80;;
75935;SDS011;64614;32.062;34.834;2023-09-19T10:29:25;9.73;;;6.18;;
75935;SDS011;64614;32.062;34.834;2023-09-19T10:31:56;10.68;;;5.80;;
75935;SDS011;64614;32.062;34.834;2023-09-19T10:34:25;10.25;;;5.50;;
75935;SDS011;64614;32.062;34.834;2023-09-19T10:36:52;9.38;;;5.95;;
75935;SDS011;64614;32.062;34.834;2023-09-19T10:39:18;8.05;;;5.35;;
75935;SDS011;64614;32.062;34.834;2023-09-19T10:41:50;7.53;;;5.10;;
75935;SDS011;64614;32.062;34.834;2023-09-19T10:44:21;8.23;;;5.50;;
75935;SDS011;64614;32.062;34.834;2023-09-19T10:46:50;7.88;;;4.97;;
75935;SDS011;64614;32.062;34.834;2023-09-19T10:49:19;8.18;;;5.40;;
75935;SDS011;64614;32.062;34.834;2023-09-19T10:51:47;7.60;;;4.72;;
75935;SDS011;64614;32.062;34.834;2023-09-19T10:54:16;9.45;;;5.65;;
75935;SDS011;64614;32.062;34.834;2023-09-19T10:56:48;9.68;;;4.93;;
75935;SDS011;64614;32.062;34.834;2023-09-19T10:59:19;9.40;;;4.97;;
75935;SDS011;64614;32.062;34.834;2023-09-19T11:01:47;8.48;;;4.93;;
75935;SDS011;64614;32.062;34.834;2023-09-19T11:04:32;8.13;;;4.93;;
75935;SDS011;64614;32.062;34.834;2023-09-19T11:09:47;7.38;;;4.30;;
75935;SDS011;64614;32.062;34.834;2023-09-19T11:15:06;7.32;;;4.53;;
75935;SDS011;64614;32.062;34.834;2023-09-19T11:17:42;7.82;;;4.35;;
75935;SDS011;64614;32.062;34.834;2023-09-19T11:30:50;5.88;;;3.80;;
75935;SDS011;64614;32.062;34.834;2023-09-19T11:33:26;6.03;;;3.85;;
75935;SDS011;64614;32.062;34.834;2023-09-19T11:43:49;5.93;;;3.58;;
75935;SDS011;64614;32.062;34.834;2023-09-19T11:46:25;5.20;;;3.30;;
75935;SDS011;64614;32.062;34.834;2023-09-19T11:48:53;5.35;;;3.10;;
75935;SDS011;64614;32.062;34.834;2023-09-19T11:51:22;4.88;;;3.05;;
75935;SDS011;64614;32.062;34.834;2023-09-19T11:53:52;5.18;;;3.33;;
75935;SDS011;64614;32.062;34.834;2023-09-19T11:56:20;5.47;;;3.28;;
75935;SDS011;64614;32.062;34.834;2023-09-19T11:58:49;5.15;;;3.20;;
75935;SDS011;64614;32.062;34.834;2023-09-19T12:01:22;5.00;;;3.38;;
75935;SDS011;64614;32.062;34.834;2023-09-19T12:03:53;4.82;;;2.83;;
75935;SDS011;64614;32.062;34.834;2023-09-19T12:06:23;5.05;;;2.92;;
75935;SDS011;64614;32.062;34.834;2023-09-19T12:08:50;4.18;;;2.80;;
75935;SDS011;64614;32.062;34.834;2023-09-19T12:11:19;5.50;;;3.08;;
75935;SDS011;64614;32.062;34.834;2023-09-19T12:13:46;4.57;;;2.83;;
75935;SDS011;64614;32.062;34.834;2023-09-19T12:16:20;5.00;;;2.88;;
75935;SDS011;64614;32.062;34.834;2023-09-19T12:18:50;3.78;;;2.35;;
75935;SDS011;64614;32.062;34.834;2023-09-19T12:26:26;4.78;;;2.72;;
75935;SDS011;64614;32.062;34.834;2023-09-19T12:28:54;4.72;;;2.60;;
75935;SDS011;64614;32.062;34.834;2023-09-19T12:31:21;4.88;;;2.67;;
75935;SDS011;64614;32.062;34.834;2023-09-19T12:33:52;6.57;;;2.70;;
75935;SDS011;64614;32.062;34.834;2023-09-19T12:36:21;4.25;;;2.75;;
75935;SDS011;64614;32.062;34.834;2023-09-19T12:38:58;4.38;;;2.70;;
75935;SDS011;64614;32.062;34.834;2023-09-19T12:41:26;5.22;;;2.83;;
75935;SDS011;64614;32.062;34.834;2023-09-19T12:43:53;5.35;;;2.70;;
75935;SDS011;64614;32.062;34.834;2023-09-19T12:46:20;3.83;;;2.53;;
75935;SDS011;64614;32.062;34.834;2023-09-19T12:49:14;4.50;;;2.63;;
75935;SDS011;64614;32.062;34.834;2023-09-19T12:51:42;4.35;;;2.45;;
75935;SDS011;64614;32.062;34.834;2023-09-19T12:54:08;4.18;;;2.85;;
75935;SDS011;64614;32.062;34.834;2023-09-19T12:56:42;4.85;;;2.88;;
75935;SDS011;64614;32.062;34.834;2023-09-19T12:59:10;4.95;;;2.92;;
75935;SDS011;64614;32.062;34.834;2023-09-19T13:01:39;4.15;;;2.67;;
75935;SDS011;64614;32.062;34.834;2023-09-19T13:04:28;4.20;;;2.60;;
75935;SDS011;64614;32.062;34.834;2023-09-19T13:06:55;5.07;;;2.53;;
75935;SDS011;64614;32.062;34.834;2023-09-19T13:09:26;4.63;;;2.65;;
75935;SDS011;64614;32.062;34.834;2023-09-19T13:12:04;3.75;;;2.65;;
75935;SDS011;64614;32.062;34.834;2023-09-19T13:14:32;3.80;;;2.42;;
75935;SDS011;64614;32.062;34.834;2023-09-19T13:17:07;4.13;;;2.45;;
75935;SDS011;64614;32.062;34.834;2023-09-19T13:19:45;4.55;;;2.53;;
75935;SDS011;64614;32.062;34.834;2023-09-19T13:25:15;5.68;;;2.63;;
75935;SDS011;64614;32.062;34.834;2023-09-19T13:27:46;5.18;;;3.00;;
75935;SDS011;64614;32.062;34.834;2023-09-19T13:32:45;3.70;;;2.50;;
75935;SDS011;64614;32.062;34.834;2023-09-19T13:35:12;3.95;;;2.50;;
75935;SDS011;64614;32.062;34.834;2023-09-19T13:37:41;4.07;;;2.30;;
75935;SDS011;64614;32.062;34.834;2023-09-19T13:42:36;3.47;;;2.45;;
75935;SDS011;64614;32.062;34.834;2023-09-19T13:45:03;4.70;;;2.70;;
75935;SDS011;64614;32.062;34.834;2023-09-19T13:47:32;3.55;;;2.40;;
75935;SDS011;64614;32.062;34.834;2023-09-19T13:49:59;3.10;;;2.20;;
75935;SDS011;64614;32.062;34.834;2023-09-19T13:52:25;4.10;;;2.53;;
75935;SDS011;64614;32.062;34.834;2023-09-19T13:54:53;4.50;;;2.65;;
75935;SDS011;64614;32.062;34.834;2023-09-19T13:57:22;5.30;;;2.75;;
75935;SDS011;64614;32.062;34.834;2023-09-19T13:59:48;4.38;;;2.60;;
75935;SDS011;64614;32.062;34.834;2023-09-19T14:02:13;4.97;;;2.92;;
75935;SDS011;64614;32.062;34.834;2023-09-19T14:04:39;4.70;;;2.80;;
75935;SDS011;64614;32.062;34.834;2023-09-19T14:07:06;3.97;;;2.42;;
75935;SDS011;64614;32.062;34.834;2023-09-19T14:09:32;4.55;;;2.40;;
75935;SDS011;64614;32.062;34.834;2023-09-19T14:11:59;4.60;;;2.90;;
75935;SDS011;64614;32.062;34.834;2023-09-19T14:14:24;4.03;;;2.53;;
75935;SDS011;64614;32.062;34.834;2023-09-19T14:16:50;4.05;;;2.50;;
75935;SDS011;64614;32.062;34.834;2023-09-19T14:19:18;4.70;;;2.90;;
75935;SDS011;64614;32.062;34.834;2023-09-19T14:21:43;4.75;;;2.70;;
75935;SDS011;64614;32.062;34.834;2023-09-19T14:24:09;4.15;;;2.75;;
75935;SDS011;64614;32.062;34.834;2023-09-19T14:26:37;4.70;;;2.75;;
75935;SDS011;64614;32.062;34.834;2023-09-19T14:29:02;5.00;;;3.10;;
75935;SDS011;64614;32.062;34.834;2023-09-19T14:31:28;4.72;;;2.92;;
75935;SDS011;64614;32.062;34.834;2023-09-19T14:33:55;5.20;;;3.13;;
75935;SDS011;64614;32.062;34.834;2023-09-19T14:36:30;4.60;;;2.95;;
75935;SDS011;64614;32.062;34.834;2023-09-19T14:38:56;4.57;;;3.03;;
75935;SDS011;64614;32.062;34.834;2023-09-19T14:43:53;4.18;;;2.70;;
75935;SDS011;64614;32.062;34.834;2023-09-19T14:46:20;5.30;;;3.03;;
75935;SDS011;64614;32.062;34.834;2023-09-19T14:48:46;6.13;;;3.35;;
75935;SDS011;64614;32.062;34.834;2023-09-19T14:51:12;10.30;;;5.10;;
75935;SDS011;64614;32.062;34.834;2023-09-19T14:53:39;9.95;;;5.32;;
75935;SDS011;64614;32.062;34.834;2023-09-19T14:56:07;11.23;;;4.95;;
75935;SDS011;64614;32.062;34.834;2023-09-19T14:58:34;12.60;;;5.57;;
75935;SDS011;64614;32.062;34.834;2023-09-19T15:01:10;10.57;;;5.47;;
75935;SDS011;64614;32.062;34.834;2023-09-19T15:03:37;10.10;;;5.60;;
75935;SDS011;64614;32.062;34.834;2023-09-19T15:06:05;10.25;;;5.40;;
75935;SDS011;64614;32.062;34.834;2023-09-19T15:08:34;12.32;;;5.78;;
75935;SDS011;64614;32.062;34.834;2023-09-19T15:11:03;10.30;;;5.72;;
75935;SDS011;64614;32.062;34.834;2023-09-19T15:13:31;9.05;;;5.38;;
75935;SDS011;64614;32.062;34.834;2023-09-19T15:16:04;9.40;;;5.40;;
75935;SDS011;64614;32.062;34.834;2023-09-19T15:18:36;10.43;;;5.75;;
75935;SDS011;64614;32.062;34.834;2023-09-19T15:21:03;11.32;;;5.15;;
75935;SDS011;64614;32.062;34.834;2023-09-19T15:23:32;11.60;;;5.38;;
75935;SDS011;64614;32.062;34.834;2023-09-19T15:26:02;11.23;;;5.57;;
75935;SDS011;64614;32.062;34.834;2023-09-19T15:28:29;10.18;;;5.30;;
75935;SDS011;64614;32.062;34.834;2023-09-19T15:33:32;10.35;;;5.45;;
75935;SDS011;64614;32.062;34.834;2023-09-19T15:36:03;13.13;;;5.35;;
75935;SDS011;64614;32.062;34.834;2023-09-19T15:39:19;10.88;;;5.55;;
75935;SDS011;64614;32.062;34.834;2023-09-19T15:41:28;12.70;;;5.70;;
75935;SDS011;64614;32.062;34.834;2023-09-19T15:43:54;13.88;;;6.53;;
75935;SDS011;64614;32.062;34.834;2023-09-19T15:46:20;12.45;;;5.82;;
75935;SDS011;64614;32.062;34.834;2023-09-19T15:48:46;9.32;;;5.50;;
75935;SDS011;64614;32.062;34.834;2023-09-19T15:51:12;10.20;;;4.97;;
75935;SDS011;64614;32.062;34.834;2023-09-19T15:53:43;8.93;;;5.40;;
75935;SDS011;64614;32.062;34.834;2023-09-19T15:56:12;10.85;;;5.78;;
75935;SDS011;64614;32.062;34.834;2023-09-19T15:58:41;9.27;;;5.00;;
75935;SDS011;64614;32.062;34.834;2023-09-19T16:01:09;8.82;;;5.05;;
75935;SDS011;64614;32.062;34.834;2023-09-19T16:03:36;12.38;;;5.80;;